Login to view Products
 
Saturday, October 19, 2019 (16:15 UTC)
Abu Dhabi International Airport
Last Updated: 19-Oct-2019 (16:14Z)
Wind Dir/Speed: N at 05 kt
Temperature: 30.7°C
Rel. Humidity: 62 %
Pressure: 1013.0 hPa
Visibility: 10000 m
ACTUALS:
  • METAR OMAA 191600Z 35008KT CAVOK 31/22 Q1012 NOSIG
  • TAF OMAA 191100Z 1912/2018 34012KT 8000 NSC BECMG 1917/1919 06006KT PROB30 TEMPO 1923/2005 VRB02KT 2000 BR BKN004 BECMG 2008/2010 32012KT=
D:\Input Parser\Destinations\Final\11\OMAAL12181100824637945.txt
1